Time;durP1;ratioP1;P1;durP2;ratioP2;P2;SDS_P1;SDS_P2;PMS_P1;PMS_P2;Temp;Humidity;BMP_temperature;BMP_pressure;BME280_temperature;BME280_humidity;BME280_pressure;Samples;Min_cycle;Max_cycle;Signal;HPM_P1;HPM_P2
2021/12/21 00:00:55;;;;;;;31.08;12.15;;;-1.90;99.90;;;;;;5013371;28;20048;-89
2021/12/21 00:03:21;;;;;;;26.90;11.88;;;-2.20;99.90;;;;;;5012154;28;20045;-89
2021/12/21 00:05:48;;;;;;;27.38;13.05;;;-2.10;99.90;;;;;;5030275;28;20036;-89
2021/12/21 00:08:16;;;;;;;29.58;12.65;;;-1.90;99.90;;;;;;5012071;28;20076;-90
2021/12/21 00:10:44;;;;;;;24.10;11.07;;;-1.90;99.90;;;;;;5014656;28;20552;-89
2021/12/21 00:13:39;;;;;;;26.90;12.32;;;-1.90;99.90;;;;;;5012765;28;20102;-89
2021/12/21 00:18:43;;;;;;;33.00;13.98;;;-1.90;99.90;;;;;;5030062;28;20045;-89
2021/12/21 00:26:11;;;;;;;27.80;13.93;;;-1.80;99.90;;;;;;5045177;28;20041;-90
2021/12/21 00:31:20;;;;;;;27.17;14.25;;;-1.80;99.90;;;;;;5017249;28;20432;-89
2021/12/21 00:33:47;;;;;;;36.90;14.32;;;0.10;99.90;;;;;;5027699;28;20045;-89
2021/12/21 00:36:15;;;;;;;30.20;14.13;;;-0.20;99.90;;;;;;5030099;28;20084;-89
2021/12/21 00:38:42;;;;;;;31.13;12.95;;;-2.00;99.90;;;;;;5011542;28;20049;-89
2021/12/21 00:41:08;;;;;;;36.83;14.25;;;-2.00;99.90;;;;;;5013273;28;20045;-89
2021/12/21 00:43:33;;;;;;;27.25;14.05;;;-2.10;99.90;;;;;;5028432;28;20048;-89
2021/12/21 00:45:59;;;;;;;32.70;14.40;;;-2.10;99.90;;;;;;5029322;28;20057;-89
2021/12/21 00:48:29;;;;;;;35.15;14.90;;;-2.10;99.90;;;;;;5030145;28;20045;-89
2021/12/21 00:51:00;;;;;;;27.85;13.70;;;-0.10;99.90;;;;;;5014168;28;20134;-89
2021/12/21 00:53:26;;;;;;;28.40;13.07;;;-2.00;99.90;;;;;;5033313;28;20055;-89
2021/12/21 00:55:52;;;;;;;32.75;15.13;;;-2.30;99.90;;;;;;5015917;28;20037;-90
2021/12/21 00:58:18;;;;;;;30.83;14.35;;;-2.10;99.90;;;;;;5018703;28;20482;-89
2021/12/21 01:00:44;;;;;;;28.13;13.23;;;-2.10;99.90;;;;;;5016210;28;20037;-89
2021/12/21 01:03:12;;;;;;;26.73;13.10;;;-2.10;99.90;;;;;;5029911;28;20090;-89
2021/12/21 01:06:26;;;;;;;30.40;12.43;;;-2.10;99.90;;;;;;5028929;28;20079;-90
2021/12/21 01:08:31;;;;;;;25.95;12.52;;;-2.30;99.90;;;;;;5041717;28;20049;-89
2021/12/21 01:16:30;;;;;;;28.27;12.43;;;-2.20;99.90;;;;;;5029745;28;20155;-89
2021/12/21 01:19:09;;;;;;;29.90;12.85;;;-2.20;99.90;;;;;;5015057;28;20080;-89
2021/12/21 01:21:49;;;;;;;29.75;13.82;;;-1.20;99.90;;;;;;5012727;28;20134;-88
2021/12/21 01:27:05;;;;;;;31.50;13.00;;;-2.20;99.90;;;;;;5016961;28;20147;-89
2021/12/21 01:37:02;;;;;;;22.77;11.07;;;-2.20;99.90;;;;;;5028393;28;20049;-89
2021/12/21 01:42:24;;;;;;;25.27;10.57;;;-2.30;99.90;;;;;;5043878;28;20111;-89
2021/12/21 01:50:19;;;;;;;23.13;9.68;;;-2.20;99.90;;;;;;5016180;28;20131;-88
2021/12/21 01:52:45;;;;;;;22.95;9.35;;;-2.30;99.90;;;;;;5026220;28;20570;-88
2021/12/21 01:55:10;;;;;;;20.50;10.00;;;-2.30;99.90;;;;;;5026408;28;20053;-88
2021/12/21 01:57:36;;;;;;;25.02;9.93;;;-2.30;99.90;;;;;;5028326;28;20084;-88
2021/12/21 02:00:05;;;;;;;22.23;8.80;;;-2.30;99.90;;;;;;5026124;28;20510;-88
2021/12/21 02:02:31;;;;;;;20.77;9.15;;;-2.30;99.90;;;;;;5028492;28;20037;-88
2021/12/21 02:04:56;;;;;;;19.85;8.88;;;-2.30;99.90;;;;;;5026632;28;20510;-88
2021/12/21 02:07:22;;;;;;;23.13;9.70;;;-0.70;99.90;;;;;;5027355;28;20041;-88
2021/12/21 02:09:48;;;;;;;21.58;8.18;;;-0.20;99.90;;;;;;5045267;28;20036;-88
2021/12/21 02:12:19;;;;;;;13.43;7.65;;;-2.40;99.90;;;;;;5042452;28;20045;-88
2021/12/21 02:14:55;;;;;;;17.40;8.68;;;-2.40;99.90;;;;;;5027713;28;20044;-88
2021/12/21 02:22:44;;;;;;;17.67;7.85;;;-2.40;99.90;;;;;;5043232;28;20088;-88
2021/12/21 02:30:49;;;;;;;19.40;9.82;;;-2.50;99.90;;;;;;5042791;28;20134;-88
2021/12/21 02:33:15;;;;;;;22.15;8.48;;;-2.50;99.90;;;;;;5042671;28;20484;-88
2021/12/21 02:35:41;;;;;;;18.95;7.95;;;-2.50;99.90;;;;;;5042872;28;20040;-88
2021/12/21 02:38:08;;;;;;;17.08;7.38;;;-2.50;99.90;;;;;;5025900;28;20037;-88
2021/12/21 02:40:35;;;;;;;25.50;8.98;;;-2.50;99.90;;;;;;5027566;28;20466;-88
2021/12/21 02:43:03;;;;;;;17.35;8.75;;;-2.50;99.90;;;;;;5025374;28;20135;-87
2021/12/21 02:45:29;;;;;;;23.80;7.95;;;-2.50;99.90;;;;;;5026980;28;20045;-89
2021/12/21 02:47:54;;;;;;;17.13;7.93;;;-2.50;99.90;;;;;;5025873;28;20049;-88
2021/12/21 02:50:20;;;;;;;16.08;7.95;;;-2.50;99.90;;;;;;5042349;28;20047;-88
2021/12/21 02:52:46;;;;;;;21.73;7.85;;;-2.50;99.90;;;;;;5042577;28;20102;-88
2021/12/21 02:55:14;;;;;;;15.30;7.88;;;-2.50;99.90;;;;;;5042221;28;20041;-88
2021/12/21 02:57:40;;;;;;;18.20;7.45;;;-1.90;99.90;;;;;;5026886;28;20136;-88
2021/12/21 03:00:08;;;;;;;14.10;7.18;;;-2.60;99.90;;;;;;5025631;28;20048;-88
2021/12/21 03:02:34;;;;;;;18.38;7.68;;;-2.60;99.90;;;;;;5026535;28;20071;-87
2021/12/21 03:05:01;;;;;;;18.40;8.18;;;-0.90;99.90;;;;;;5042246;28;20045;-88
2021/12/21 03:10:14;;;;;;;16.88;7.90;;;-1.70;99.90;;;;;;5048477;28;20049;-88
2021/12/21 03:15:19;;;;;;;19.98;8.25;;;-2.70;99.90;;;;;;5048305;28;20080;-88
2021/12/21 03:17:45;;;;;;;17.02;8.02;;;-2.70;99.90;;;;;;5028603;28;20036;-88
2021/12/21 03:20:11;;;;;;;24.10;8.23;;;-2.70;99.90;;;;;;5031653;28;20086;-88
2021/12/21 03:22:37;;;;;;;19.60;7.85;;;-2.70;99.90;;;;;;5026433;28;20045;-88
2021/12/21 03:25:04;;;;;;;19.05;8.50;;;-2.80;99.90;;;;;;5042326;28;20084;-88
2021/12/21 03:27:29;;;;;;;18.52;7.95;;;-2.60;99.90;;;;;;5042576;28;20037;-88
2021/12/21 03:29:55;;;;;;;19.42;8.20;;;-0.40;99.90;;;;;;5025261;28;20051;-87
2021/12/21 03:32:21;;;;;;;19.95;8.73;;;-2.60;99.90;;;;;;5043265;28;20136;-88
2021/12/21 03:34:47;;;;;;;20.02;8.98;;;-2.60;99.90;;;;;;5024770;28;20049;-87
2021/12/21 03:37:14;;;;;;;18.92;8.65;;;-2.70;99.90;;;;;;5042940;28;20195;-88
2021/12/21 03:39:44;;;;;;;15.85;8.30;;;-2.60;99.90;;;;;;5025771;28;20741;-88
2021/12/21 03:42:11;;;;;;;24.25;7.85;;;-2.60;99.90;;;;;;5042015;28;20041;-88
2021/12/21 03:44:37;;;;;;;14.45;7.82;;;-2.60;99.90;;;;;;5042532;28;20084;-88
2021/12/21 03:47:04;;;;;;;18.05;7.47;;;-2.70;99.90;;;;;;5040944;28;20140;-88
2021/12/21 03:52:08;;;;;;;19.27;7.30;;;-2.60;99.90;;;;;;5041132;28;20613;-88
2021/12/21 03:54:34;;;;;;;21.20;7.75;;;-2.60;99.90;;;;;;5026014;28;20526;-88
2021/12/21 03:57:01;;;;;;;17.73;7.38;;;-2.60;99.90;;;;;;5024932;28;20041;-88
2021/12/21 03:59:28;;;;;;;14.25;6.90;;;-2.70;99.90;;;;;;5041442;28;20045;-88
2021/12/21 04:01:54;;;;;;;22.33;7.60;;;-2.70;99.90;;;;;;5026263;28;20757;-87
2021/12/21 04:04:22;;;;;;;22.20;7.88;;;-2.70;99.90;;;;;;5025056;28;20423;-87
2021/12/21 04:06:48;;;;;;;15.35;8.18;;;-2.70;99.90;;;;;;5026623;28;20037;-87
2021/12/21 04:09:14;;;;;;;21.98;7.50;;;-2.70;99.90;;;;;;5040803;28;20127;-88
2021/12/21 04:11:40;;;;;;;15.68;7.25;;;-2.80;99.90;;;;;;5025577;28;20041;-88
2021/12/21 04:14:06;;;;;;;15.52;6.97;;;-2.70;99.90;;;;;;5024793;28;20114;-88
2021/12/21 04:16:32;;;;;;;19.30;7.10;;;-0.60;99.90;;;;;;5028244;28;20106;-88
2021/12/21 04:18:58;;;;;;;24.52;8.75;;;-1.00;99.90;;;;;;5045709;28;20048;-87
2021/12/21 04:21:23;;;;;;;19.27;7.30;;;-2.80;99.90;;;;;;5044722;28;20084;-88
2021/12/21 04:23:49;;;;;;;15.40;6.90;;;-2.80;99.90;;;;;;5046427;28;20045;-88
2021/12/21 04:26:16;;;;;;;15.55;7.25;;;-2.90;99.90;;;;;;5044813;28;20171;-87
2021/12/21 04:28:43;;;;;;;16.80;7.57;;;-2.90;99.90;;;;;;5046401;28;20412;-87
2021/12/21 04:31:10;;;;;;;15.70;7.43;;;-3.10;99.90;;;;;;5044936;28;20040;-88
2021/12/21 04:33:37;;;;;;;16.40;7.03;;;-2.70;99.90;;;;;;5044846;28;20145;-88
2021/12/21 04:36:04;;;;;;;17.70;6.70;;;-2.90;99.90;;;;;;5029060;28;20045;-88
2021/12/21 04:38:34;;;;;;;18.58;7.40;;;-2.80;99.90;;;;;;5044645;28;20504;-88
2021/12/21 04:43:38;;;;;;;11.77;6.88;;;-2.90;99.90;;;;;;5044382;28;20049;-88
2021/12/21 04:46:04;;;;;;;16.58;6.57;;;-2.90;99.90;;;;;;5045389;28;20091;-88
2021/12/21 04:48:30;;;;;;;20.73;7.93;;;-2.90;99.90;;;;;;5027993;28;20045;-87
2021/12/21 04:50:56;;;;;;;14.63;6.85;;;-3.00;99.90;;;;;;5044823;28;20110;-87
2021/12/21 04:53:22;;;;;;;17.88;7.20;;;-2.90;99.90;;;;;;5029505;28;20041;-87
2021/12/21 04:55:48;;;;;;;17.23;8.02;;;-1.30;99.90;;;;;;5027611;28;20554;-87
2021/12/21 04:58:13;;;;;;;17.90;7.50;;;-3.00;99.90;;;;;;5045836;28;20083;-87
2021/12/21 05:00:40;;;;;;;17.95;6.57;;;-2.90;99.90;;;;;;5028019;28;20052;-87
2021/12/21 05:03:06;;;;;;;15.45;7.03;;;-1.10;99.90;;;;;;5045559;28;20106;-87
2021/12/21 05:05:32;;;;;;;16.17;6.93;;;-3.00;99.90;;;;;;5044643;28;20124;-87
2021/12/21 05:08:07;;;;;;;15.45;7.10;;;-3.00;99.90;;;;;;5046035;28;20041;-88
2021/12/21 05:10:48;;;;;;;19.95;7.35;;;-3.00;99.90;;;;;;5046224;28;20115;-87
2021/12/21 05:13:15;;;;;;;15.13;7.35;;;-3.00;99.90;;;;;;5048766;28;20048;-88
2021/12/21 05:15:42;;;;;;;16.50;6.55;;;-3.00;99.90;;;;;;5034574;28;20045;-88
2021/12/21 05:18:07;;;;;;;19.52;7.35;;;-1.30;99.90;;;;;;5032944;28;20049;-88
2021/12/21 05:20:33;;;;;;;15.88;7.07;;;-0.80;99.90;;;;;;5033693;28;20531;-87
2021/12/21 05:22:59;;;;;;;11.25;6.57;;;-3.10;99.90;;;;;;5033777;28;20044;-88
2021/12/21 05:25:25;;;;;;;16.75;6.57;;;-3.00;99.90;;;;;;5031590;28;20104;-90
2021/12/21 05:27:50;;;;;;;16.02;7.15;;;-0.90;99.90;;;;;;5029726;28;20064;-88
2021/12/21 05:30:16;;;;;;;14.20;6.95;;;-3.00;99.90;;;;;;5029168;28;20110;-87
2021/12/21 05:32:42;;;;;;;11.73;6.53;;;-3.00;99.90;;;;;;5029606;28;20052;-87
2021/12/21 05:35:09;;;;;;;16.17;7.00;;;-3.20;99.90;;;;;;5027364;28;20045;-87
2021/12/21 05:37:38;;;;;;;13.43;6.05;;;-3.10;99.90;;;;;;5029504;28;20519;-88
2021/12/21 05:40:13;;;;;;;12.25;6.32;;;-1.10;99.90;;;;;;5030659;28;20091;-88
2021/12/21 05:42:40;;;;;;;13.55;6.80;;;-3.10;99.90;;;;;;5027541;28;20049;-88
2021/12/21 05:45:07;;;;;;;11.63;6.45;;;-3.20;99.90;;;;;;5028139;28;20053;-88
2021/12/21 05:47:33;;;;;;;23.95;7.60;;;-3.10;99.90;;;;;;5026094;28;20059;-88
2021/12/21 05:49:58;;;;;;;16.40;6.97;;;-3.20;99.90;;;;;;5028639;28;20037;-88
2021/12/21 05:52:24;;;;;;;12.85;6.28;;;-3.20;99.90;;;;;;5043968;28;20049;-88
2021/12/21 05:54:50;;;;;;;12.68;5.93;;;-3.10;99.90;;;;;;5045058;28;20037;-88
2021/12/21 05:57:16;;;;;;;12.60;6.20;;;-3.10;99.90;;;;;;5027171;28;20045;-88
2021/12/21 05:59:42;;;;;;;16.08;6.43;;;-3.10;99.90;;;;;;5043627;28;20057;-86
2021/12/21 06:02:08;;;;;;;15.55;5.85;;;-3.10;99.90;;;;;;5045677;28;20037;-87
2021/12/21 06:04:34;;;;;;;19.90;6.57;;;-1.70;99.90;;;;;;5042964;28;20484;-87
2021/12/21 06:07:00;;;;;;;12.48;6.10;;;-3.10;99.90;;;;;;5027556;28;20124;-86
2021/12/21 06:09:27;;;;;;;15.20;5.00;;;-3.00;99.90;;;;;;5042045;28;20120;-86
2021/12/21 06:12:07;;;;;;;16.85;6.57;;;-1.20;99.90;;;;;;5060803;28;20053;-85
2021/12/21 06:14:55;;;;;;;16.98;5.85;;;-3.10;99.90;;;;;;5043744;28;20408;-85
2021/12/21 06:28:10;;;;;;;17.23;6.00;;;-3.20;99.90;;;;;;5043891;28;20052;-82
2021/12/21 06:30:38;;;;;;;11.25;5.30;;;-3.20;99.90;;;;;;5041919;28;20154;-85
2021/12/21 06:33:06;;;;;;;11.38;5.25;;;-3.20;99.90;;;;;;5044093;28;20404;-85
2021/12/21 06:35:33;;;;;;;12.75;5.93;;;-3.50;99.90;;;;;;5059182;28;20455;-81
2021/12/21 06:37:59;;;;;;;12.98;5.75;;;-3.20;99.90;;;;;;5042930;28;20369;-87
2021/12/21 06:40:25;;;;;;;15.18;6.60;;;-3.10;99.90;;;;;;5043304;28;20429;-90
2021/12/21 06:42:51;;;;;;;16.50;5.55;;;-3.20;99.90;;;;;;5025355;28;20181;-86
2021/12/21 06:45:44;;;;;;;9.00;4.97;;;-3.10;99.90;;;;;;5043359;28;20067;-90
2021/12/21 06:51:28;;;;;;;8.77;5.43;;;-3.20;99.90;;;;;;5043120;28;20055;-94
2021/12/21 06:54:05;;;;;;;15.63;6.00;;;-1.90;99.90;;;;;;5043491;28;20095;-88
2021/12/21 06:56:49;;;;;;;;;;;;;;;;;;;;;
2021/12/21 06:59:34;;;;;;;7.57;3.55;;;-1.50;99.90;;;;;;5039351;28;20737;-84
2021/12/21 07:02:04;;;;;;;8.77;4.47;;;-1.20;99.90;;;;;;5041918;28;20579;-89
2021/12/21 07:04:34;;;;;;;12.40;4.95;;;-3.20;99.90;;;;;;5024328;28;20041;-85
2021/12/21 07:07:00;;;;;;;11.30;5.68;;;-3.20;99.90;;;;;;5024553;28;20088;-85
2021/12/21 07:09:39;;;;;;;8.90;4.65;;;-3.20;99.90;;;;;;5041198;28;20457;-85
2021/12/21 07:20:28;;;;;;;9.52;5.63;;;-3.20;99.90;;;;;;5043177;28;20186;-85
2021/12/21 07:22:54;;;;;;;12.45;4.82;;;-3.20;99.90;;;;;;5042275;28;20045;-85
2021/12/21 07:25:19;;;;;;;9.52;4.70;;;-1.70;99.90;;;;;;5044521;28;20086;-85
2021/12/21 07:27:45;;;;;;;16.85;6.45;;;-3.20;99.90;;;;;;5042306;28;20049;-84
2021/12/21 07:30:11;;;;;;;10.18;4.95;;;-3.20;99.90;;;;;;5040262;28;20049;-84
2021/12/21 07:32:37;;;;;;;14.82;5.55;;;-3.30;99.90;;;;;;5026524;28;20044;-84
2021/12/21 07:35:04;;;;;;;12.60;5.75;;;-3.20;99.90;;;;;;5040719;28;20041;-84
2021/12/21 07:37:30;;;;;;;11.48;6.03;;;-3.20;99.90;;;;;;5042878;28;20079;-84
2021/12/21 07:39:55;;;;;;;7.05;4.68;;;-1.30;99.90;;;;;;5041262;28;20125;-84
2021/12/21 07:42:44;;;;;;;11.35;5.40;;;-0.90;99.90;;;;;;5041079;28;20053;-84
2021/12/21 07:45:10;;;;;;;10.32;5.57;;;-1.50;99.90;;;;;;5025358;28;20041;-83
2021/12/21 07:47:36;;;;;;;13.48;4.90;;;-3.20;99.90;;;;;;5040899;28;20501;-84
2021/12/21 07:50:03;;;;;;;13.25;5.65;;;-3.20;99.90;;;;;;5043571;28;20056;-84
2021/12/21 07:52:40;;;;;;;9.90;5.68;;;-3.20;99.90;;;;;;5042971;28;20041;-82
2021/12/21 07:55:07;;;;;;;9.23;4.78;;;-3.20;99.90;;;;;;5029674;28;20051;-84
2021/12/21 07:57:32;;;;;;;14.75;6.00;;;-3.20;99.90;;;;;;5028865;28;20095;-84
2021/12/21 08:00:01;;;;;;;12.35;5.20;;;-3.30;99.90;;;;;;5029071;28;20045;-84
2021/12/21 08:02:28;;;;;;;10.13;4.72;;;-3.20;99.90;;;;;;5045156;28;20056;-84
2021/12/21 08:04:54;;;;;;;12.43;5.28;;;-3.20;99.90;;;;;;5060915;28;20049;-84
2021/12/21 08:07:24;;;;;;;9.05;5.43;;;-3.20;99.90;;;;;;5045208;28;20076;-85
2021/12/21 08:09:54;;;;;;;12.65;4.70;;;-3.20;99.90;;;;;;5028022;28;20099;-84
2021/12/21 08:12:20;;;;;;;13.82;6.13;;;-1.80;99.90;;;;;;5028778;28;20041;-84
2021/12/21 08:14:49;;;;;;;17.23;5.05;;;-3.20;99.90;;;;;;5030801;28;20120;-84
2021/12/21 08:17:16;;;;;;;9.52;4.78;;;-1.10;99.90;;;;;;5030461;28;20044;-84
2021/12/21 08:19:42;;;;;;;17.00;5.82;;;-3.20;99.90;;;;;;5032639;28;20472;-84
2021/12/21 08:22:08;;;;;;;7.93;4.50;;;-1.00;99.90;;;;;;5048255;28;20045;-84
2021/12/21 08:24:34;;;;;;;14.43;4.28;;;-2.10;99.90;;;;;;5035396;28;20091;-84
2021/12/21 08:27:10;;;;;;;7.18;4.68;;;-3.10;99.90;;;;;;5048396;28;20045;-84
2021/12/21 08:29:36;;;;;;;9.00;5.00;;;-3.10;99.90;;;;;;5046500;28;20047;-84
2021/12/21 08:32:02;;;;;;;8.82;4.80;;;-3.10;99.90;;;;;;5051319;28;20124;-84
2021/12/21 08:34:42;;;;;;;9.75;5.30;;;-3.10;99.90;;;;;;5047580;28;20040;-87
2021/12/21 08:37:08;;;;;;;13.93;6.43;;;-3.00;99.90;;;;;;5032521;28;20048;-89
2021/12/21 08:39:40;;;;;;;20.98;7.55;;;-3.10;99.90;;;;;;5031237;28;20088;-88
2021/12/21 08:52:34;;;;;;;21.40;8.48;;;-2.30;99.90;;;;;;5031007;28;20040;-85
2021/12/21 08:55:34;;;;;;;;;;;;;;;;;;;;;
2021/12/21 08:58:00;;;;;;;15.75;7.30;;;-2.80;99.90;;;;;;5041159;28;20095;-85
2021/12/21 09:00:26;;;;;;;19.27;7.75;;;-3.10;99.90;;;;;;5060353;28;20463;-83
2021/12/21 09:02:52;;;;;;;11.55;6.50;;;-1.10;99.90;;;;;;5045626;28;20044;-84
2021/12/21 09:05:21;;;;;;;18.95;6.65;;;-2.40;99.90;;;;;;5045196;28;20484;-84
2021/12/21 09:07:50;;;;;;;16.05;7.38;;;-1.00;99.90;;;;;;5045447;28;20128;-83
2021/12/21 09:10:18;;;;;;;14.95;7.15;;;-2.20;99.90;;;;;;5042241;28;20101;-83
2021/12/21 09:12:44;;;;;;;20.23;7.43;;;-2.10;99.90;;;;;;5044470;28;20037;-84
2021/12/21 09:15:11;;;;;;;16.58;7.13;;;-0.50;99.90;;;;;;5044616;28;20081;-84
2021/12/21 09:17:40;;;;;;;17.58;5.80;;;-2.00;99.90;;;;;;5043637;28;20056;-85
2021/12/21 09:20:07;;;;;;;16.70;6.57;;;-1.80;99.90;;;;;;5046017;28;20478;-84
2021/12/21 09:22:33;;;;;;;13.00;7.00;;;-1.70;99.90;;;;;;5028369;28;20041;-86
2021/12/21 09:25:02;;;;;;;11.45;6.63;;;-1.60;99.90;;;;;;5031473;28;20128;-87
2021/12/21 09:27:30;;;;;;;13.38;6.28;;;-0.30;99.90;;;;;;5030258;28;20069;-87
2021/12/21 09:30:18;;;;;;;11.05;6.90;;;-1.60;99.90;;;;;;5027175;28;20041;-87
2021/12/21 09:33:07;;;;;;;16.30;7.22;;;-1.40;99.90;;;;;;5029003;28;20502;-87
2021/12/21 09:35:53;;;;;;;11.75;6.20;;;-1.10;99.90;;;;;;5021693;28;20045;-88
2021/12/21 09:38:41;;;;;;;13.98;7.05;;;-0.60;99.90;;;;;;5008116;28;20041;-88
2021/12/21 09:41:12;;;;;;;16.95;6.85;;;-1.00;99.90;;;;;;5027007;28;20045;-88
2021/12/21 09:46:55;;;;;;;13.35;6.30;;;-0.80;99.90;;;;;;5033750;28;20089;-87
2021/12/21 09:49:21;;;;;;;10.25;5.53;;;-0.60;99.90;;;;;;5042586;28;20082;-86
2021/12/21 09:51:58;;;;;;;14.05;6.25;;;-0.50;99.90;;;;;;5024742;28;20193;-88
2021/12/21 09:54:27;;;;;;;9.93;6.25;;;-0.40;99.90;;;;;;5042915;28;20056;-86
2021/12/21 09:56:53;;;;;;;16.85;6.22;;;-0.30;99.90;;;;;;5040181;28;20352;-86
2021/12/21 09:59:19;;;;;;;10.93;6.85;;;1.60;99.90;;;;;;5027485;28;20037;-86
2021/12/21 10:01:45;;;;;;;15.73;5.45;;;1.80;99.90;;;;;;5041251;28;20061;-84
2021/12/21 10:04:11;;;;;;;11.20;6.47;;;1.70;99.90;;;;;;5025783;28;20041;-84
2021/12/21 10:06:59;;;;;;;;;;;;;;;;;;;;;
2021/12/21 10:09:36;;;;;;;11.13;5.28;;;2.10;99.90;;;;;;5042517;28;20172;-84
2021/12/21 10:12:01;;;;;;;20.77;6.22;;;2.30;99.90;;;;;;5058786;28;20056;-84
2021/12/21 10:14:32;;;;;;;14.40;6.57;;;0.40;99.90;;;;;;5040204;28;20049;-83
2021/12/21 10:17:06;;;;;;;10.60;5.53;;;2.30;99.90;;;;;;5042943;28;20091;-83
2021/12/21 10:19:32;;;;;;;10.48;5.40;;;2.20;99.90;;;;;;5042641;28;20049;-86
2021/12/21 10:22:20;;;;;;;10.60;4.82;;;0.80;99.90;;;;;;5057511;28;20037;-84
2021/12/21 10:24:50;;;;;;;8.18;4.70;;;-0.90;99.90;;;;;;5042281;28;20041;-84
2021/12/21 10:27:20;;;;;;;15.10;5.70;;;1.00;99.90;;;;;;5041723;28;20049;-84
2021/12/21 10:29:49;;;;;;;9.05;4.35;;;1.20;99.90;;;;;;5043645;28;20080;-83
2021/12/21 10:32:19;;;;;;;13.55;4.90;;;3.50;99.90;;;;;;5043354;28;20124;-84
2021/12/21 10:34:53;;;;;;;9.98;4.22;;;1.40;99.90;;;;;;5043241;28;20095;-84
2021/12/21 10:37:30;;;;;;;18.60;4.07;;;1.50;99.90;;;;;;5043327;28;20135;-82
2021/12/21 10:40:23;;;;;;;9.90;4.75;;;1.00;99.90;;;;;;5043067;28;20413;-82
2021/12/21 10:43:03;;;;;;;9.45;3.08;;;2.10;99.90;;;;;;5042219;28;20056;-81
2021/12/21 10:45:38;;;;;;;7.90;4.22;;;1.90;99.90;;;;;;5042248;28;20492;-83
2021/12/21 10:48:18;;;;;;;10.95;3.70;;;1.90;99.90;;;;;;5023316;28;20052;-82
2021/12/21 10:50:46;;;;;;;9.73;3.45;;;1.80;99.90;;;;;;5044108;28;20124;-82
2021/12/21 10:53:20;;;;;;;7.68;2.97;;;2.10;99.90;;;;;;5054852;28;20041;-83
2021/12/21 10:55:57;;;;;;;5.82;3.40;;;2.20;99.90;;;;;;5041844;28;20154;-82
2021/12/21 10:58:28;;;;;;;8.43;3.60;;;4.00;99.90;;;;;;5025378;28;20045;-82
2021/12/21 11:01:00;;;;;;;9.50;3.13;;;3.60;99.90;;;;;;5022602;28;20083;-82
2021/12/21 11:03:54;;;;;;;6.50;2.97;;;2.20;99.90;;;;;;5044008;28;20052;-83
2021/12/21 11:06:33;;;;;;;12.07;3.78;;;2.50;99.90;;;;;;5024566;28;20618;-82
2021/12/21 11:08:59;;;;;;;6.03;3.00;;;2.70;99.90;;;;;;5041950;28;20508;-82
2021/12/21 11:11:33;;;;;;;7.28;3.13;;;2.70;99.90;;;;;;5024495;28;20049;-83
2021/12/21 11:14:14;;;;;;;9.25;3.70;;;2.80;99.90;;;;;;5039134;28;20114;-82
2021/12/21 11:17:00;;;;;;;10.60;3.35;;;2.90;99.90;;;;;;5040239;28;20056;-82
2021/12/21 11:19:26;;;;;;;;;;;2.90;99.90;;;;;;5053219;28;20473;-82
2021/12/21 11:21:56;;;;;;;6.35;3.53;;;1.00;99.90;;;;;;5041016;28;20003;-84
2021/12/21 11:24:22;;;;;;;9.73;3.58;;;3.00;99.90;;;;;;5023050;28;20049;-82
2021/12/21 11:26:48;;;;;;;8.75;3.55;;;3.00;99.90;;;;;;5040985;28;20388;-82
2021/12/21 11:29:19;;;;;;;13.77;3.58;;;3.40;99.90;;;;;;5043083;28;20041;-84
2021/12/21 11:31:52;;;;;;;7.57;3.20;;;3.20;99.90;;;;;;5023400;28;20056;-83
2021/12/21 11:34:31;;;;;;;;;;;3.80;99.90;;;;;;5059099;28;20112;-83
2021/12/21 11:39:42;;;;;;;5.97;2.88;;;3.30;99.90;;;;;;5037639;28;20049;-83
2021/12/21 11:42:19;;;;;;;8.07;3.33;;;3.40;99.90;;;;;;5041926;28;20077;-83
2021/12/21 11:44:51;;;;;;;9.32;3.00;;;4.30;99.90;;;;;;5023311;28;20602;-84
2021/12/21 11:47:26;;;;;;;9.50;3.47;;;3.50;99.90;;;;;;5026125;28;20079;-85
2021/12/21 11:50:01;;;;;;;6.80;2.78;;;3.60;99.90;;;;;;5025077;28;20049;-84
2021/12/21 11:52:30;;;;;;;8.30;3.33;;;3.60;99.90;;;;;;5041591;28;20543;-84
2021/12/21 11:55:08;;;;;;;12.00;3.47;;;3.60;99.90;;;;;;5026145;28;20049;-85
2021/12/21 11:57:49;;;;;;;10.68;2.85;;;5.50;99.90;;;;;;5040672;28;20099;-84
2021/12/21 12:00:35;;;;;;;7.75;3.00;;;3.80;99.90;;;;;;5042621;28;20446;-83
2021/12/21 12:03:13;;;;;;;8.55;2.90;;;3.90;99.90;;;;;;5040986;28;20482;-84
2021/12/21 12:05:53;;;;;;;12.13;3.58;;;3.90;99.90;;;;;;5038035;28;20052;-82
2021/12/21 12:08:20;;;;;;;7.22;2.92;;;4.70;99.90;;;;;;5040688;28;20045;-84
2021/12/21 12:10:55;;;;;;;6.25;3.15;;;3.90;99.90;;;;;;5024452;28;20511;-83
2021/12/21 12:13:40;;;;;;;10.23;3.45;;;4.00;99.90;;;;;;5042894;28;20079;-82
2021/12/21 12:16:12;;;;;;;8.93;3.15;;;4.00;99.90;;;;;;5025388;28;20497;-83
2021/12/21 12:18:41;;;;;;;6.18;2.55;;;4.50;99.90;;;;;;5041910;28;20155;-83
2021/12/21 12:21:30;;;;;;;7.10;2.63;;;4.10;99.90;;;;;;5040697;28;20381;-82
2021/12/21 12:24:00;;;;;;;8.43;2.55;;;4.80;99.90;;;;;;5023984;28;20049;-83
2021/12/21 12:26:39;;;;;;;8.38;2.38;;;6.10;99.90;;;;;;5041423;28;20132;-84
2021/12/21 12:29:15;;;;;;;8.93;2.60;;;4.20;99.90;;;;;;5043728;28;20071;-83
2021/12/21 12:31:45;;;;;;;11.63;3.67;;;4.20;99.90;;;;;;5040434;28;20053;-83
2021/12/21 12:34:22;;;;;;;7.68;3.38;;;4.20;99.90;;;;;;5042745;28;20045;-82
2021/12/21 12:36:52;;;;;;;7.32;2.47;;;4.30;99.90;;;;;;5043496;28;20538;-83
2021/12/21 12:39:28;;;;;;;7.97;3.08;;;6.10;99.90;;;;;;5044552;28;20116;-85
2021/12/21 12:42:04;;;;;;;4.40;2.53;;;4.30;99.90;;;;;;5045106;28;20625;-84
2021/12/21 12:44:31;;;;;;;6.10;2.72;;;4.60;99.90;;;;;;5044254;28;20045;-86
2021/12/21 12:47:02;;;;;;;11.35;3.45;;;2.70;99.90;;;;;;5028823;28;20057;-84
2021/12/21 12:49:30;;;;;;;5.90;2.97;;;4.30;99.90;;;;;;5026555;28;20135;-81
2021/12/21 12:52:28;;;;;;;11.70;2.83;;;5.70;99.90;;;;;;5044516;28;20451;-83
2021/12/21 12:55:01;;;;;;;7.32;2.80;;;4.70;99.90;;;;;;5045234;28;20076;-82
2021/12/21 12:57:36;;;;;;;3.78;2.53;;;4.30;99.90;;;;;;5042796;28;20045;-82
2021/12/21 13:00:14;;;;;;;7.47;3.25;;;4.30;99.90;;;;;;5047330;28;20136;-83
2021/12/21 13:03:02;;;;;;;6.72;3.20;;;4.30;99.90;;;;;;5045676;28;20045;-82
2021/12/21 13:05:34;;;;;;;10.35;3.20;;;4.30;99.90;;;;;;5044167;28;20053;-82
2021/12/21 13:08:12;;;;;;;11.27;3.35;;;4.30;99.90;;;;;;5029196;28;20450;-83
2021/12/21 13:10:46;;;;;;;9.60;2.50;;;4.30;99.90;;;;;;5027437;28;20049;-82
2021/12/21 13:13:13;;;;;;;6.78;2.65;;;4.30;99.90;;;;;;5044067;28;20128;-84
2021/12/21 13:15:42;;;;;;;6.25;2.78;;;5.90;99.90;;;;;;5025936;28;20056;-83
2021/12/21 13:18:12;;;;;;;5.45;2.35;;;4.30;99.90;;;;;;5044900;28;20037;-83
2021/12/21 13:20:40;;;;;;;3.75;2.30;;;4.30;99.90;;;;;;5044060;28;20041;-82
2021/12/21 13:23:09;;;;;;;5.10;2.58;;;4.50;99.90;;;;;;5044534;28;20041;-83
2021/12/21 13:25:35;;;;;;;7.75;2.58;;;2.90;99.90;;;;;;5045774;28;20045;-83
2021/12/21 13:28:13;;;;;;;7.25;3.42;;;4.20;99.90;;;;;;5060805;28;20440;-83
2021/12/21 13:30:51;;;;;;;6.22;2.20;;;4.20;99.90;;;;;;5043542;28;20111;-83
2021/12/21 13:33:22;;;;;;;10.55;3.10;;;4.20;99.90;;;;;;5046604;28;20459;-83
2021/12/21 13:35:53;;;;;;;7.07;2.70;;;4.20;99.90;;;;;;5043000;28;20048;-83
2021/12/21 13:38:21;;;;;;;13.50;3.00;;;4.10;99.90;;;;;;5046787;28;20128;-83
2021/12/21 13:41:02;;;;;;;8.93;2.75;;;4.10;99.90;;;;;;5045026;28;20068;-84
2021/12/21 13:43:28;;;;;;;7.18;3.28;;;4.10;99.90;;;;;;5044661;28;20056;-83
2021/12/21 13:46:02;;;;;;;6.57;3.17;;;4.10;99.90;;;;;;5044846;28;20049;-84
2021/12/21 13:48:30;;;;;;;10.48;3.28;;;4.10;99.90;;;;;;5044979;28;20045;-83
2021/12/21 13:51:07;;;;;;;9.65;2.92;;;6.10;99.90;;;;;;5046369;28;20040;-83
2021/12/21 13:53:43;;;;;;;6.60;2.92;;;4.10;99.90;;;;;;5044851;28;20614;-83
2021/12/21 13:56:16;;;;;;;8.70;3.40;;;4.00;99.90;;;;;;5026943;28;20049;-83
2021/12/21 13:58:43;;;;;;;8.77;3.25;;;4.00;99.90;;;;;;5045291;28;20059;-83
2021/12/21 14:01:17;;;;;;;9.38;2.70;;;5.00;99.90;;;;;;5025929;28;20492;-83
2021/12/21 14:03:53;;;;;;;9.77;3.05;;;5.50;99.90;;;;;;5045998;28;20052;-83
2021/12/21 14:06:22;;;;;;;5.70;2.50;;;3.90;99.90;;;;;;5025852;28;20025;-83
2021/12/21 14:08:59;;;;;;;5.85;3.35;;;5.30;99.90;;;;;;5027015;28;20484;-84
2021/12/21 14:11:33;;;;;;;6.22;2.78;;;3.90;99.90;;;;;;5043959;28;20443;-86
2021/12/21 14:14:01;;;;;;;6.72;2.40;;;3.80;99.90;;;;;;5042273;28;20045;-83
2021/12/21 14:16:31;;;;;;;6.25;2.30;;;4.70;99.90;;;;;;5045342;28;20504;-83
2021/12/21 14:19:02;;;;;;;5.05;2.47;;;3.70;99.90;;;;;;5043709;28;20087;-83
2021/12/21 14:21:38;;;;;;;6.13;2.28;;;4.90;99.90;;;;;;5045258;28;20052;-83
2021/12/21 14:24:08;;;;;;;8.75;2.58;;;5.40;99.90;;;;;;5045168;28;20051;-83
2021/12/21 14:26:41;;;;;;;6.20;2.03;;;3.50;99.90;;;;;;5043454;28;20049;-87
2021/12/21 14:29:09;;;;;;;4.65;2.03;;;4.00;99.90;;;;;;5042980;28;20508;-83
2021/12/21 14:32:03;;;;;;;5.18;2.40;;;5.80;99.90;;;;;;5041630;28;20528;-83
2021/12/21 14:34:51;;;;;;;5.50;2.13;;;3.40;99.90;;;;;;5042372;28;20634;-83
2021/12/21 14:37:20;;;;;;;8.93;2.13;;;2.20;99.90;;;;;;5026531;28;20048;-83